Time;durP1;ratioP1;P1;durP2;ratioP2;P2;SDS_P1;SDS_P2;PMS_P1;PMS_P2;Temp;Humidity;BMP_temperature;BMP_pressure;BME280_temperature;BME280_humidity;BME280_pressure;Samples;Min_cycle;Max_cycle;Signal;HPM_P1;HPM_P2
2022/10/26 00:01:02;;;;;;;16.33;10.85;;;;;;;;;;5101077;28;20123;-70
2022/10/26 00:03:28;;;;;;;20.83;11.30;;;;;;;;;;5099231;28;20094;-71
2022/10/26 00:05:54;;;;;;;16.50;10.93;;;;;;;;;;5094238;28;20075;-71
2022/10/26 00:08:20;;;;;;;22.38;11.38;;;;;;;;;;5097350;27;20040;-70
2022/10/26 00:10:46;;;;;;;24.17;12.10;;;;;;;;;;5100464;28;20044;-69
2022/10/26 00:13:12;;;;;;;19.20;10.85;;;;;;;;;;5103573;27;20056;-69
2022/10/26 00:15:41;;;;;;;19.08;10.32;;;;;;;;;;5088610;28;20048;-69
2022/10/26 00:18:08;;;;;;;19.40;10.40;;;;;;;;;;5096886;28;20069;-69
2022/10/26 00:20:34;;;;;;;15.60;10.20;;;;;;;;;;5104350;28;20135;-69
2022/10/26 00:23:00;;;;;;;15.05;9.68;;;;;;;;;;5111287;27;20470;-70
2022/10/26 00:25:26;;;;;;;17.25;10.63;;;;;;;;;;5107703;27;20047;-69
2022/10/26 00:27:52;;;;;;;16.35;10.60;;;;;;;;;;5096629;28;20058;-68
2022/10/26 00:30:18;;;;;;;16.15;10.55;;;;;;;;;;5095590;28;20079;-69
2022/10/26 00:32:44;;;;;;;11.60;10.20;;;;;;;;;;5095883;28;20040;-69
2022/10/26 00:35:10;;;;;;;13.13;10.25;;;;;;;;;;5094561;27;20497;-70
2022/10/26 00:37:36;;;;;;;19.20;10.48;;;;;;;;;;5101222;27;20394;-69
2022/10/26 00:40:02;;;;;;;18.85;12.00;;;;;;;;;;5107609;28;20043;-69
2022/10/26 00:42:28;;;;;;;15.95;11.50;;;;;;;;;;5076569;28;20042;-70
2022/10/26 00:45:00;;;;;;;15.77;10.85;;;;;;;;;;5093475;28;20039;-70
2022/10/26 00:47:33;;;;;;;18.25;11.13;;;;;;;;;;5094924;28;20486;-69
2022/10/26 00:50:02;;;;;;;19.00;11.23;;;;;;;;;;5103912;27;20039;-69
2022/10/26 00:52:28;;;;;;;16.70;11.77;;;;;;;;;;5090404;27;20518;-69
2022/10/26 00:54:54;;;;;;;22.70;11.23;;;;;;;;;;5098644;27;20068;-70
2022/10/26 00:57:20;;;;;;;19.58;11.52;;;;;;;;;;5096524;27;20047;-69
2022/10/26 00:59:47;;;;;;;16.00;10.57;;;;;;;;;;5105647;27;20046;-70
2022/10/26 01:02:13;;;;;;;15.88;10.10;;;;;;;;;;5097817;27;20397;-69
2022/10/26 01:04:39;;;;;;;18.38;10.48;;;;;;;;;;5093608;27;20055;-69
2022/10/26 01:07:05;;;;;;;14.57;8.90;;;;;;;;;;5093406;27;20056;-69
2022/10/26 01:09:32;;;;;;;17.98;5.10;;;;;;;;;;5108981;27;20112;-70
2022/10/26 01:11:58;;;;;;;29.35;6.00;;;;;;;;;;5089160;27;20104;-69
2022/10/26 01:14:26;;;;;;;13.40;8.05;;;;;;;;;;5096930;28;20498;-69
2022/10/26 01:16:55;;;;;;;14.80;9.07;;;;;;;;;;5096212;28;20058;-70
2022/10/26 01:19:24;;;;;;;16.60;8.98;;;;;;;;;;5089983;27;20055;-70
2022/10/26 01:21:58;;;;;;;13.82;9.00;;;;;;;;;;5091633;27;20391;-70
2022/10/26 01:24:42;;;;;;;15.88;8.57;;;;;;;;;;5079417;28;20051;-69
2022/10/26 01:27:17;;;;;;;18.58;9.48;;;;;;;;;;5098307;28;20040;-69
2022/10/26 01:29:46;;;;;;;12.05;8.52;;;;;;;;;;5095347;27;20042;-69
2022/10/26 01:32:22;;;;;;;13.00;9.23;;;;;;;;;;5093208;28;20410;-70
2022/10/26 01:35:07;;;;;;;16.95;9.05;;;;;;;;;;5091782;28;20082;-69
2022/10/26 01:37:35;;;;;;;18.77;11.10;;;;;;;;;;5095083;28;20032;-69
2022/10/26 01:40:18;;;;;;;17.10;9.55;;;;;;;;;;5094091;28;20069;-69
2022/10/26 01:42:47;;;;;;;16.98;10.00;;;;;;;;;;5096971;28;20040;-70
2022/10/26 01:45:14;;;;;;;14.80;10.38;;;;;;;;;;5089053;27;20040;-69
2022/10/26 01:47:40;;;;;;;16.13;8.73;;;;;;;;;;5084135;27;20043;-70
2022/10/26 01:50:06;;;;;;;19.58;9.70;;;;;;;;;;5093448;28;20810;-70
2022/10/26 01:52:33;;;;;;;15.55;9.57;;;;;;;;;;5094847;27;20075;-70
2022/10/26 01:55:00;;;;;;;15.23;9.57;;;;;;;;;;5091243;27;20135;-70
2022/10/26 01:57:26;;;;;;;18.80;9.65;;;;;;;;;;5096604;27;20044;-69
2022/10/26 02:00:08;;;;;;;15.35;9.50;;;;;;;;;;5102628;27;20078;-70
2022/10/26 02:03:12;;;;;;;14.93;9.50;;;;;;;;;;5082243;28;20047;-69
2022/10/26 02:05:38;;;;;;;18.70;11.38;;;;;;;;;;5013018;28;20188;-70
2022/10/26 02:08:19;;;;;;;17.50;11.05;;;;;;;;;;5023759;28;20131;-70
2022/10/26 02:11:11;;;;;;;12.70;9.55;;;;;;;;;;5067201;28;20050;-69
2022/10/26 02:13:37;;;;;;;15.35;11.07;;;;;;;;;;5101356;28;20078;-69
2022/10/26 02:16:14;;;;;;;14.75;12.25;;;;;;;;;;5098536;28;20105;-69
2022/10/26 02:18:43;;;;;;;17.50;11.80;;;;;;;;;;5113674;27;20078;-69
2022/10/26 02:21:12;;;;;;;16.15;12.38;;;;;;;;;;5097746;28;20048;-69
2022/10/26 02:23:39;;;;;;;17.25;11.45;;;;;;;;;;5105100;27;20071;-69
2022/10/26 02:26:07;;;;;;;11.90;10.52;;;;;;;;;;5094327;28;20047;-69
2022/10/26 02:28:34;;;;;;;16.35;11.15;;;;;;;;;;5096306;28;20043;-70
2022/10/26 02:31:01;;;;;;;16.73;11.00;;;;;;;;;;5096143;28;20043;-72
2022/10/26 02:33:29;;;;;;;15.02;11.75;;;;;;;;;;5106039;28;20043;-71
2022/10/26 02:35:56;;;;;;;12.82;10.70;;;;;;;;;;5097026;28;20051;-69
2022/10/26 02:38:23;;;;;;;11.55;9.95;;;;;;;;;;5102704;28;20108;-69
2022/10/26 02:40:50;;;;;;;22.80;10.80;;;;;;;;;;5084092;28;20052;-69
2022/10/26 02:43:20;;;;;;;15.63;10.80;;;;;;;;;;5093425;28;20088;-69
2022/10/26 02:45:49;;;;;;;21.10;11.70;;;;;;;;;;5079859;28;20035;-69
2022/10/26 02:48:15;;;;;;;15.40;12.90;;;;;;;;;;5096837;28;20043;-68
2022/10/26 02:50:50;;;;;;;15.20;12.15;;;;;;;;;;5096322;28;20044;-69
2022/10/26 02:53:25;;;;;;;18.38;12.30;;;;;;;;;;5100530;28;20047;-69
2022/10/26 02:55:51;;;;;;;20.25;13.55;;;;;;;;;;5099676;28;20043;-69
2022/10/26 02:58:24;;;;;;;18.80;13.88;;;;;;;;;;5105734;28;20097;-69
2022/10/26 03:00:51;;;;;;;18.83;14.02;;;;;;;;;;5099885;28;20048;-69
2022/10/26 03:03:17;;;;;;;16.85;14.13;;;;;;;;;;5090757;28;20040;-69
2022/10/26 03:05:43;;;;;;;22.98;15.55;;;;;;;;;;5095947;28;20047;-69
2022/10/26 03:08:09;;;;;;;24.25;15.88;;;;;;;;;;5099126;28;20404;-68
2022/10/26 03:10:38;;;;;;;21.83;15.25;;;;;;;;;;5092975;28;20527;-69
2022/10/26 03:13:04;;;;;;;23.42;14.25;;;;;;;;;;5096016;28;20482;-69
2022/10/26 03:15:30;;;;;;;23.83;14.48;;;;;;;;;;5097330;27;20046;-69
2022/10/26 03:17:56;;;;;;;19.05;14.98;;;;;;;;;;5102502;27;20128;-69
2022/10/26 03:20:22;;;;;;;18.17;13.80;;;;;;;;;;5103247;27;20504;-68
2022/10/26 03:22:47;;;;;;;25.45;15.55;;;;;;;;;;5101785;27;20112;-70
2022/10/26 03:25:14;;;;;;;20.13;14.65;;;;;;;;;;5092394;28;20090;-69
2022/10/26 03:27:40;;;;;;;23.20;15.75;;;;;;;;;;5099544;27;20131;-69
2022/10/26 03:30:07;;;;;;;24.38;15.38;;;;;;;;;;5108626;27;20070;-70
2022/10/26 03:32:33;;;;;;;23.02;15.77;;;;;;;;;;5096934;27;20043;-70
2022/10/26 03:34:59;;;;;;;20.95;15.38;;;;;;;;;;5094640;27;20097;-70
2022/10/26 03:37:25;;;;;;;25.90;17.05;;;;;;;;;;5099986;27;20039;-69
2022/10/26 03:39:51;;;;;;;27.08;17.95;;;;;;;;;;5097492;27;20040;-69
2022/10/26 03:42:17;;;;;;;25.38;18.20;;;;;;;;;;5101117;27;20669;-69
2022/10/26 03:44:43;;;;;;;25.17;18.65;;;;;;;;;;5099726;27;20068;-69
2022/10/26 03:47:09;;;;;;;28.60;18.00;;;;;;;;;;5095542;27;20048;-69
2022/10/26 03:49:35;;;;;;;24.92;18.90;;;;;;;;;;5101824;28;20050;-69
2022/10/26 03:52:01;;;;;;;29.35;18.85;;;;;;;;;;5100662;28;20056;-69
2022/10/26 03:54:27;;;;;;;28.15;18.92;;;;;;;;;;5095731;28;20409;-69
2022/10/26 03:56:53;;;;;;;25.63;18.70;;;;;;;;;;5104405;27;20047;-70
2022/10/26 03:59:19;;;;;;;24.42;18.23;;;;;;;;;;5095114;27;20562;-70
2022/10/26 04:01:45;;;;;;;26.65;17.88;;;;;;;;;;5098243;27;20035;-70
2022/10/26 04:04:11;;;;;;;27.52;17.25;;;;;;;;;;5094377;27;20146;-68
2022/10/26 04:06:37;;;;;;;23.90;18.25;;;;;;;;;;5101357;27;20040;-69
2022/10/26 04:09:03;;;;;;;24.55;17.58;;;;;;;;;;5095665;28;21350;-69
2022/10/26 04:11:29;;;;;;;21.83;16.38;;;;;;;;;;5094323;28;20044;-69
2022/10/26 04:13:58;;;;;;;27.38;19.13;;;;;;;;;;5103317;27;20048;-69
2022/10/26 04:16:24;;;;;;;25.48;17.88;;;;;;;;;;5100281;27;20043;-69
2022/10/26 04:18:50;;;;;;;22.63;16.90;;;;;;;;;;5107207;28;20096;-69
2022/10/26 04:21:16;;;;;;;26.83;17.67;;;;;;;;;;5106491;28;20047;-69
2022/10/26 04:23:42;;;;;;;24.70;19.38;;;;;;;;;;5096640;28;20081;-69
2022/10/26 04:26:08;;;;;;;35.97;23.52;;;;;;;;;;5095073;28;20685;-70
2022/10/26 04:28:34;;;;;;;29.90;20.85;;;;;;;;;;5094899;27;20050;-70
2022/10/26 04:31:00;;;;;;;33.53;20.92;;;;;;;;;;5097938;27;20036;-69
2022/10/26 04:33:26;;;;;;;29.27;21.30;;;;;;;;;;5098932;28;20126;-70
2022/10/26 04:35:52;;;;;;;31.00;20.35;;;;;;;;;;5111909;28;20073;-69
2022/10/26 04:38:18;;;;;;;25.45;19.10;;;;;;;;;;5110961;28;20055;-69
2022/10/26 04:40:44;;;;;;;26.65;19.67;;;;;;;;;;5105570;28;20497;-69
2022/10/26 04:43:10;;;;;;;30.08;20.35;;;;;;;;;;5104840;28;20039;-69
2022/10/26 04:45:36;;;;;;;31.08;20.95;;;;;;;;;;5113130;28;20042;-69
2022/10/26 04:48:06;;;;;;;30.23;20.20;;;;;;;;;;5089831;28;20051;-69
2022/10/26 04:50:33;;;;;;;29.20;20.65;;;;;;;;;;5100720;28;20047;-70
2022/10/26 04:52:59;;;;;;;26.25;17.25;;;;;;;;;;5113020;28;20054;-69
2022/10/26 04:55:25;;;;;;;26.30;19.00;;;;;;;;;;5108312;28;20444;-69
2022/10/26 04:57:51;;;;;;;26.38;18.60;;;;;;;;;;5107476;28;20397;-69
2022/10/26 05:00:17;;;;;;;28.90;18.55;;;;;;;;;;5095588;28;20048;-70
2022/10/26 05:02:43;;;;;;;26.85;18.65;;;;;;;;;;5101487;28;20370;-69
2022/10/26 05:05:09;;;;;;;21.52;17.98;;;;;;;;;;5111351;28;20054;-69
2022/10/26 05:07:35;;;;;;;29.23;18.95;;;;;;;;;;5111292;28;20098;-69
2022/10/26 05:10:01;;;;;;;24.27;16.98;;;;;;;;;;5113922;27;20047;-69
2022/10/26 05:12:27;;;;;;;26.75;18.65;;;;;;;;;;5109496;27;20517;-70
2022/10/26 05:14:57;;;;;;;25.90;18.45;;;;;;;;;;5090342;28;20048;-69
2022/10/26 05:17:23;;;;;;;22.73;17.67;;;;;;;;;;5106145;28;20048;-70
2022/10/26 05:19:54;;;;;;;27.40;18.10;;;;;;;;;;5105443;27;20485;-69
2022/10/26 05:22:20;;;;;;;22.80;16.63;;;;;;;;;;5118910;27;20120;-69
2022/10/26 05:24:46;;;;;;;25.85;17.92;;;;;;;;;;5112101;27;20517;-70
2022/10/26 05:27:12;;;;;;;23.42;15.85;;;;;;;;;;5106741;27;20071;-70
2022/10/26 05:29:37;;;;;;;26.90;16.73;;;;;;;;;;5084463;28;20521;-70
2022/10/26 05:32:03;;;;;;;24.15;16.70;;;;;;;;;;5105870;28;20196;-71
2022/10/26 05:34:29;;;;;;;25.30;15.88;;;;;;;;;;5103525;27;20044;-70
2022/10/26 05:36:55;;;;;;;24.45;16.23;;;;;;;;;;5100515;28;20057;-70
2022/10/26 05:39:21;;;;;;;30.15;16.63;;;;;;;;;;5101029;28;20050;-70
2022/10/26 05:41:47;;;;;;;25.92;17.00;;;;;;;;;;5093044;28;20455;-69
2022/10/26 05:44:13;;;;;;;26.13;16.67;;;;;;;;;;5097579;28;20119;-69
2022/10/26 05:46:39;;;;;;;23.27;16.38;;;;;;;;;;5095165;28;20046;-69
2022/10/26 05:49:05;;;;;;;24.13;16.42;;;;;;;;;;5096259;28;20043;-70
2022/10/26 05:51:36;;;;;;;22.85;16.77;;;;;;;;;;5102422;27;20040;-71
2022/10/26 05:54:02;;;;;;;23.58;17.45;;;;;;;;;;5111926;27;20051;-70
2022/10/26 05:56:34;;;;;;;27.27;17.17;;;;;;;;;;5095792;27;20036;-70
2022/10/26 05:59:00;;;;;;;25.80;16.25;;;;;;;;;;5095055;28;20050;-69
2022/10/26 06:01:32;;;;;;;30.13;16.83;;;;;;;;;;5097635;28;20052;-69
2022/10/26 06:04:06;;;;;;;20.40;15.98;;;;;;;;;;5101474;28;20058;-69
2022/10/26 06:06:37;;;;;;;24.27;15.77;;;;;;;;;;5099676;28;20590;-71
2022/10/26 06:09:03;;;;;;;26.33;15.18;;;;;;;;;;5085076;28;20093;-69
2022/10/26 06:11:29;;;;;;;23.85;16.00;;;;;;;;;;5091492;28;20456;-69
2022/10/26 06:13:59;;;;;;;23.88;15.82;;;;;;;;;;5092001;28;20050;-69
2022/10/26 06:16:49;;;;;;;25.13;15.38;;;;;;;;;;5098315;28;20390;-70
2022/10/26 06:19:30;;;;;;;20.55;14.75;;;;;;;;;;5103583;28;20051;-69
2022/10/26 06:22:05;;;;;;;20.30;14.82;;;;;;;;;;5099601;27;20035;-71
2022/10/26 06:24:41;;;;;;;21.55;14.05;;;;;;;;;;5095931;27;20036;-70
2022/10/26 06:27:16;;;;;;;22.60;14.27;;;;;;;;;;5084788;28;20043;-70
2022/10/26 06:29:53;;;;;;;21.95;13.95;;;;;;;;;;5080371;28;20070;-69
2022/10/26 06:32:20;;;;;;;22.17;15.07;;;;;;;;;;5095020;28;20139;-69
2022/10/26 06:34:47;;;;;;;20.92;15.52;;;;;;;;;;5104437;28;20046;-71
2022/10/26 06:37:14;;;;;;;21.02;15.10;;;;;;;;;;5103839;28;20039;-70
2022/10/26 06:39:43;;;;;;;23.75;14.55;;;;;;;;;;5101732;28;20050;-70
2022/10/26 06:42:09;;;;;;;19.33;14.27;;;;;;;;;;5101433;28;20539;-70
2022/10/26 06:44:36;;;;;;;23.55;15.55;;;;;;;;;;5095897;28;20097;-70
2022/10/26 06:47:18;;;;;;;24.88;15.13;;;;;;;;;;5104674;28;20044;-70
2022/10/26 06:50:03;;;;;;;25.15;15.60;;;;;;;;;;5098275;28;20174;-70
2022/10/26 06:52:33;;;;;;;29.15;15.50;;;;;;;;;;5097491;27;20652;-70
2022/10/26 06:54:59;;;;;;;21.55;14.15;;;;;;;;;;5107525;27;20047;-69
2022/10/26 06:57:28;;;;;;;23.70;15.23;;;;;;;;;;5106745;27;20071;-68
2022/10/26 06:59:59;;;;;;;21.65;14.75;;;;;;;;;;5110433;27;20497;-70
2022/10/26 07:02:25;;;;;;;19.17;13.55;;;;;;;;;;5116010;27;20039;-69
2022/10/26 07:04:51;;;;;;;19.90;13.73;;;;;;;;;;5116282;27;20051;-70
2022/10/26 07:07:22;;;;;;;19.98;14.27;;;;;;;;;;5106527;28;20078;-71
2022/10/26 07:09:48;;;;;;;17.15;13.10;;;;;;;;;;5107979;27;20079;-70
2022/10/26 07:12:14;;;;;;;21.92;14.10;;;;;;;;;;5103213;27;20051;-69
2022/10/26 07:14:40;;;;;;;20.63;13.68;;;;;;;;;;5104377;27;20067;-69
2022/10/26 07:17:06;;;;;;;20.55;13.93;;;;;;;;;;5100632;27;20048;-69
2022/10/26 07:19:32;;;;;;;19.45;14.40;;;;;;;;;;5116381;27;20063;-69
2022/10/26 07:21:59;;;;;;;19.40;13.60;;;;;;;;;;5115623;27;20425;-70
2022/10/26 07:24:25;;;;;;;22.58;14.18;;;;;;;;;;5110583;27;20198;-70
2022/10/26 07:26:53;;;;;;;18.25;13.43;;;;;;;;;;5127760;27;20051;-70
2022/10/26 07:29:19;;;;;;;18.15;13.30;;;;;;;;;;5117417;27;20047;-70
2022/10/26 07:31:45;;;;;;;17.88;13.15;;;;;;;;;;5116844;27;20042;-70
2022/10/26 07:34:11;;;;;;;19.10;13.05;;;;;;;;;;5097078;28;20043;-70
2022/10/26 07:36:37;;;;;;;16.92;12.65;;;;;;;;;;5112104;28;20047;-70
2022/10/26 07:39:03;;;;;;;19.83;12.02;;;;;;;;;;5117895;27;20548;-70
2022/10/26 07:41:29;;;;;;;18.70;11.98;;;;;;;;;;5115468;27;20051;-70
2022/10/26 07:43:55;;;;;;;13.95;11.52;;;;;;;;;;5127793;27;20495;-70
2022/10/26 07:46:21;;;;;;;19.05;12.38;;;;;;;;;;5124201;27;20047;-70
2022/10/26 07:48:47;;;;;;;19.60;11.93;;;;;;;;;;5097436;28;20059;-70
2022/10/26 07:51:13;;;;;;;15.77;11.65;;;;;;;;;;5095113;28;20039;-70
2022/10/26 07:53:39;;;;;;;18.15;12.05;;;;;;;;;;5115788;27;20062;-70
2022/10/26 07:56:06;;;;;;;14.75;11.55;;;;;;;;;;5124501;27;20062;-69
2022/10/26 07:58:32;;;;;;;15.93;12.18;;;;;;;;;;5118400;27;20047;-70
2022/10/26 08:00:57;;;;;;;14.68;11.45;;;;;;;;;;5115400;27;20446;-70
2022/10/26 08:03:23;;;;;;;14.27;10.95;;;;;;;;;;5111058;28;20100;-70
2022/10/26 08:05:52;;;;;;;13.93;10.30;;;;;;;;;;5106623;27;20044;-70
2022/10/26 08:08:18;;;;;;;14.00;10.48;;;;;;;;;;5105419;27;20052;-70
2022/10/26 08:10:45;;;;;;;13.43;10.20;;;;;;;;;;5113273;27;20048;-70
2022/10/26 08:13:11;;;;;;;14.52;9.30;;;;;;;;;;5091917;28;20143;-70
2022/10/26 08:15:37;;;;;;;14.48;9.10;;;;;;;;;;5126612;27;20044;-69
2022/10/26 08:18:04;;;;;;;16.55;9.45;;;;;;;;;;5109371;27;20051;-70
2022/10/26 08:20:30;;;;;;;15.02;8.05;;;;;;;;;;5102411;27;20042;-69
2022/10/26 08:22:56;;;;;;;12.93;8.48;;;;;;;;;;5100751;27;20101;-68
2022/10/26 08:25:22;;;;;;;17.30;8.70;;;;;;;;;;5120376;27;20055;-69
2022/10/26 08:27:48;;;;;;;15.70;8.80;;;;;;;;;;5121683;27;20039;-69
2022/10/26 08:30:14;;;;;;;11.40;8.25;;;;;;;;;;5105456;28;20035;-69
2022/10/26 08:32:43;;;;;;;10.40;7.50;;;;;;;;;;5110892;27;20044;-68
2022/10/26 08:35:09;;;;;;;12.77;7.65;;;;;;;;;;5112690;27;20040;-70
2022/10/26 08:37:35;;;;;;;13.25;8.40;;;;;;;;;;5110735;28;20118;-70
2022/10/26 08:40:03;;;;;;;14.27;7.65;;;;;;;;;;5117046;27;20118;-70
2022/10/26 08:42:38;;;;;;;12.55;7.78;;;;;;;;;;5114438;27;20465;-70
2022/10/26 08:45:17;;;;;;;14.15;7.78;;;;;;;;;;5113541;27;20049;-70
2022/10/26 08:47:45;;;;;;;10.90;7.53;;;;;;;;;;5114173;27;20035;-69
2022/10/26 08:50:26;;;;;;;11.75;7.47;;;;;;;;;;5106192;27;20070;-70
2022/10/26 08:53:01;;;;;;;15.88;6.97;;;;;;;;;;5121940;27;20405;-70
2022/10/26 08:55:31;;;;;;;9.75;6.15;;;;;;;;;;5114412;27;20556;-70
2022/10/26 08:57:58;;;;;;;10.35;6.95;;;;;;;;;;5104513;27;20130;-70
2022/10/26 09:00:25;;;;;;;11.10;6.75;;;;;;;;;;5104935;28;20043;-69
2022/10/26 09:02:52;;;;;;;15.82;6.68;;;;;;;;;;5110034;27;20059;-70
2022/10/26 09:05:22;;;;;;;12.15;6.60;;;;;;;;;;5108022;27;20398;-70
2022/10/26 09:07:55;;;;;;;11.80;6.32;;;;;;;;;;5105369;28;20516;-70
2022/10/26 09:10:27;;;;;;;9.20;6.20;;;;;;;;;;5113069;27;20161;-69
2022/10/26 09:12:53;;;;;;;10.68;6.20;;;;;;;;;;5104836;27;20043;-68
2022/10/26 09:15:28;;;;;;;8.93;5.88;;;;;;;;;;5107419;28;20092;-70
2022/10/26 09:17:54;;;;;;;14.80;5.78;;;;;;;;;;5108906;27;20058;-70
2022/10/26 09:20:30;;;;;;;9.55;5.97;;;;;;;;;;5108669;27;20039;-69
2022/10/26 09:23:00;;;;;;;8.77;6.10;;;;;;;;;;5110104;27;20052;-70
2022/10/26 09:25:29;;;;;;;9.23;6.28;;;;;;;;;;5109007;27;20039;-70
2022/10/26 09:27:57;;;;;;;9.50;5.35;;;;;;;;;;5111765;27;20050;-70
2022/10/26 09:30:23;;;;;;;11.10;5.30;;;;;;;;;;5107003;27;20067;-70
2022/10/26 09:32:50;;;;;;;10.65;5.45;;;;;;;;;;5107123;27;20036;-70
2022/10/26 09:35:32;;;;;;;13.43;5.47;;;;;;;;;;5112257;27;20043;-70
2022/10/26 09:38:03;;;;;;;6.82;4.63;;;;;;;;;;5097938;27;20043;-71
2022/10/26 09:40:47;;;;;;;8.98;4.38;;;;;;;;;;5127186;27;20108;-70
2022/10/26 09:43:16;;;;;;;12.98;4.50;;;;;;;;;;5112229;27;20431;-70
2022/10/26 09:45:46;;;;;;;8.80;4.30;;;;;;;;;;5097899;27;20058;-70
2022/10/26 09:48:19;;;;;;;9.55;3.92;;;;;;;;;;5116537;27;20073;-70
2022/10/26 09:50:47;;;;;;;6.18;4.22;;;;;;;;;;5110217;27;20067;-69
2022/10/26 09:53:13;;;;;;;8.07;3.95;;;;;;;;;;5115596;27;20047;-70
2022/10/26 09:55:42;;;;;;;11.82;3.67;;;;;;;;;;5114946;27;20036;-69
2022/10/26 09:58:13;;;;;;;7.05;3.65;;;;;;;;;;5116305;27;20062;-70
2022/10/26 10:00:40;;;;;;;7.18;3.70;;;;;;;;;;5112896;27;20561;-69
2022/10/26 10:03:17;;;;;;;6.80;3.88;;;;;;;;;;5111685;27;20459;-70
2022/10/26 10:05:42;;;;;;;5.57;3.83;;;;;;;;;;5120656;27;20034;-71
2022/10/26 10:08:25;;;;;;;6.97;4.05;;;;;;;;;;5102511;27;20058;-70
2022/10/26 10:10:54;;;;;;;8.70;4.05;;;;;;;;;;5112355;27;20047;-70
2022/10/26 10:13:21;;;;;;;10.48;3.90;;;;;;;;;;5117986;27;20044;-70
2022/10/26 10:15:52;;;;;;;9.73;3.63;;;;;;;;;;5117153;27;20076;-70
2022/10/26 10:18:19;;;;;;;8.55;3.65;;;;;;;;;;5111698;27;20080;-69
2022/10/26 10:20:50;;;;;;;6.68;3.80;;;;;;;;;;5113980;27;20084;-70
2022/10/26 10:23:30;;;;;;;9.45;4.03;;;;;;;;;;5091144;28;20058;-70
2022/10/26 10:26:00;;;;;;;8.38;3.58;;;;;;;;;;5100787;27;20049;-70
2022/10/26 10:28:27;;;;;;;6.63;3.65;;;;;;;;;;5125375;27;20069;-68
2022/10/26 10:30:58;;;;;;;9.15;3.58;;;;;;;;;;5117741;27;20130;-70
2022/10/26 10:33:33;;;;;;;5.95;3.40;;;;;;;;;;5116824;27;20051;-69
2022/10/26 10:36:00;;;;;;;6.63;2.95;;;;;;;;;;5113228;28;20047;-70
2022/10/26 10:38:26;;;;;;;10.38;3.13;;;;;;;;;;5118059;28;20043;-68
2022/10/26 10:41:02;;;;;;;7.35;3.20;;;;;;;;;;5113714;28;20047;-69
2022/10/26 10:43:28;;;;;;;10.98;3.58;;;;;;;;;;5108574;28;20075;-70
2022/10/26 10:45:55;;;;;;;9.65;3.25;;;;;;;;;;5118401;27;20043;-69
2022/10/26 10:48:25;;;;;;;5.13;2.65;;;;;;;;;;5115751;27;20069;-69
2022/10/26 10:50:54;;;;;;;7.93;3.10;;;;;;;;;;5102718;28;20046;-69
2022/10/26 10:53:24;;;;;;;5.80;2.53;;;;;;;;;;5113903;28;20047;-69
2022/10/26 10:56:10;;;;;;;14.07;2.90;;;;;;;;;;5099851;28;20043;-70
2022/10/26 10:58:45;;;;;;;5.45;2.95;;;;;;;;;;5097240;28;20093;-68
2022/10/26 11:01:18;;;;;;;8.73;2.90;;;;;;;;;;5115432;28;20043;-69
2022/10/26 11:03:47;;;;;;;6.25;2.60;;;;;;;;;;5117269;28;20039;-70
2022/10/26 11:06:21;;;;;;;8.43;2.90;;;;;;;;;;5116650;28;20070;-69
2022/10/26 11:08:50;;;;;;;14.73;3.10;;;;;;;;;;5108514;27;20036;-68
2022/10/26 11:11:22;;;;;;;6.85;2.80;;;;;;;;;;5103058;28;20043;-69
2022/10/26 11:13:54;;;;;;;8.35;3.13;;;;;;;;;;5106407;28;20281;-68
2022/10/26 11:16:23;;;;;;;8.05;2.78;;;;;;;;;;5101282;28;20047;-69
2022/10/26 11:18:52;;;;;;;11.23;3.00;;;;;;;;;;5104345;28;20398;-69
2022/10/26 11:21:28;;;;;;;9.80;2.85;;;;;;;;;;5107058;28;20122;-68
2022/10/26 11:24:00;;;;;;;7.03;2.65;;;;;;;;;;5099624;28;20557;-69
2022/10/26 11:26:29;;;;;;;8.43;2.70;;;;;;;;;;5103921;28;20498;-71
2022/10/26 11:29:04;;;;;;;8.45;3.13;;;;;;;;;;5112353;28;20052;-70
2022/10/26 11:31:50;;;;;;;7.57;2.90;;;;;;;;;;5110325;28;20073;-69
2022/10/26 11:34:23;;;;;;;10.40;2.97;;;;;;;;;;5105779;28;20043;-69
2022/10/26 11:36:53;;;;;;;9.35;3.15;;;;;;;;;;5109464;27;20508;-70
2022/10/26 11:39:31;;;;;;;15.15;3.10;;;;;;;;;;5113107;28;20083;-68
2022/10/26 11:42:03;;;;;;;6.25;3.00;;;;;;;;;;5106605;27;20066;-68
2022/10/26 11:44:37;;;;;;;6.90;2.95;;;;;;;;;;5098383;28;20086;-68
2022/10/26 11:47:08;;;;;;;11.63;3.20;;;;;;;;;;5112486;28;20088;-69
2022/10/26 11:49:39;;;;;;;9.98;3.22;;;;;;;;;;5089017;27;20058;-68
2022/10/26 11:52:05;;;;;;;10.43;2.90;;;;;;;;;;5106231;27;20055;-69
2022/10/26 11:54:37;;;;;;;8.93;2.70;;;;;;;;;;5099445;27;20074;-69
2022/10/26 11:57:04;;;;;;;11.48;2.60;;;;;;;;;;5114142;27;20066;-69
2022/10/26 11:59:31;;;;;;;6.78;2.50;;;;;;;;;;5103397;27;20529;-69
2022/10/26 12:02:00;;;;;;;9.32;2.70;;;;;;;;;;5116506;27;20460;-68
2022/10/26 12:04:29;;;;;;;5.75;2.45;;;;;;;;;;5119989;27;20043;-68
2022/10/26 12:06:56;;;;;;;9.52;2.85;;;;;;;;;;5115191;27;20071;-68
2022/10/26 12:09:34;;;;;;;10.35;2.55;;;;;;;;;;5098036;28;20047;-69
2022/10/26 12:12:09;;;;;;;8.20;3.05;;;;;;;;;;5114715;27;20482;-69
2022/10/26 12:14:41;;;;;;;6.18;2.70;;;;;;;;;;5106821;27;20047;-68
2022/10/26 12:17:07;;;;;;;6.15;2.83;;;;;;;;;;5092930;28;20069;-69
2022/10/26 12:19:47;;;;;;;9.68;2.78;;;;;;;;;;5114992;27;20056;-69
2022/10/26 12:22:16;;;;;;;8.93;2.85;;;;;;;;;;5096684;27;20035;-69
2022/10/26 12:24:45;;;;;;;7.30;2.60;;;;;;;;;;5108137;27;20092;-68
2022/10/26 12:27:30;;;;;;;7.05;2.60;;;;;;;;;;5112858;27;20104;-68
2022/10/26 12:30:19;;;;;;;4.60;2.80;;;;;;;;;;5110472;28;20043;-69
2022/10/26 12:32:48;;;;;;;6.55;3.10;;;;;;;;;;5097824;27;20043;-69
2022/10/26 12:35:32;;;;;;;5.65;2.65;;;;;;;;;;5099004;27;20035;-68
2022/10/26 12:37:59;;;;;;;7.78;2.47;;;;;;;;;;5116121;27;20046;-68
2022/10/26 12:40:41;;;;;;;7.13;2.67;;;;;;;;;;5123434;27;20439;-69
2022/10/26 12:43:13;;;;;;;4.75;2.65;;;;;;;;;;5117640;27;20035;-69
2022/10/26 12:45:40;;;;;;;7.53;2.92;;;;;;;;;;5101109;27;20517;-69
2022/10/26 12:48:20;;;;;;;6.30;2.72;;;;;;;;;;5113842;27;20043;-68
2022/10/26 12:50:46;;;;;;;7.55;3.10;;;;;;;;;;5109594;28;20039;-68
2022/10/26 12:53:14;;;;;;;6.57;3.15;;;;;;;;;;5119667;27;20063;-68
2022/10/26 12:55:40;;;;;;;10.23;3.47;;;;;;;;;;5111093;27;20044;-69
2022/10/26 12:58:16;;;;;;;9.07;3.03;;;;;;;;;;5101009;27;20047;-69
2022/10/26 13:00:49;;;;;;;7.00;3.17;;;;;;;;;;5109577;27;20070;-69
2022/10/26 13:03:24;;;;;;;9.07;3.35;;;;;;;;;;5103720;27;20043;-68
2022/10/26 13:06:02;;;;;;;8.70;2.70;;;;;;;;;;5101687;28;20527;-69
2022/10/26 13:08:37;;;;;;;11.48;3.30;;;;;;;;;;5115826;27;20048;-69
2022/10/26 13:11:05;;;;;;;8.48;2.95;;;;;;;;;;5104915;27;20047;-69
2022/10/26 13:13:32;;;;;;;5.60;2.92;;;;;;;;;;5114911;27;20044;-69
2022/10/26 13:15:59;;;;;;;6.80;2.80;;;;;;;;;;5099568;27;20040;-69
2022/10/26 13:18:26;;;;;;;10.50;3.00;;;;;;;;;;5116588;27;20742;-69
2022/10/26 13:20:53;;;;;;;5.22;2.60;;;;;;;;;;5114316;27;20063;-69
2022/10/26 13:23:25;;;;;;;7.47;2.80;;;;;;;;;;5102542;27;20043;-68
2022/10/26 13:26:06;;;;;;;9.67;3.27;;;;;;;;;;5111349;27;20377;-69
2022/10/26 13:28:41;;;;;;;5.43;2.65;;;;;;;;;;5114519;27;20047;-69
2022/10/26 13:31:10;;;;;;;10.30;3.15;;;;;;;;;;5094133;28;20044;-69
2022/10/26 13:33:38;;;;;;;9.88;3.00;;;;;;;;;;5114602;27;20057;-69
2022/10/26 13:36:11;;;;;;;5.10;3.33;;;;;;;;;;5100207;27;20066;-68
2022/10/26 13:38:37;;;;;;;9.52;3.50;;;;;;;;;;5107016;28;20043;-69
2022/10/26 13:41:08;;;;;;;9.02;3.83;;;;;;;;;;5109515;27;20039;-69
2022/10/26 13:43:36;;;;;;;9.68;3.80;;;;;;;;;;5111415;27;20036;-68
2022/10/26 13:46:03;;;;;;;10.50;3.72;;;;;;;;;;5102011;28;20048;-68
2022/10/26 13:48:37;;;;;;;8.98;4.03;;;;;;;;;;5104057;28;20048;-69
2022/10/26 13:51:09;;;;;;;9.18;3.78;;;;;;;;;;5111519;28;20501;-69
2022/10/26 13:53:40;;;;;;;8.63;3.95;;;;;;;;;;5121622;27;20048;-69
2022/10/26 13:56:36;;;;;;;8.93;4.25;;;;;;;;;;5109528;27;20044;-69
2022/10/26 13:59:12;;;;;;;7.07;3.20;;;;;;;;;;5054981;28;20118;-69
2022/10/26 14:01:38;;;;;;;11.57;3.45;;;;;;;;;;5113299;27;20043;-70
2022/10/26 14:04:17;;;;;;;10.75;3.83;;;;;;;;;;5117751;27;20132;-68
2022/10/26 14:06:49;;;;;;;8.65;3.30;;;;;;;;;;5094396;28;20047;-69
2022/10/26 14:09:16;;;;;;;9.90;3.58;;;;;;;;;;5100085;28;20051;-68
2022/10/26 14:11:59;;;;;;;10.30;3.58;;;;;;;;;;5096065;28;20386;-69
2022/10/26 14:14:25;;;;;;;8.75;3.50;;;;;;;;;;5105676;28;20045;-69
2022/10/26 14:16:52;;;;;;;12.40;3.90;;;;;;;;;;5113375;27;20069;-70
2022/10/26 14:19:21;;;;;;;7.78;3.25;;;;;;;;;;5103071;28;20089;-70
2022/10/26 14:21:49;;;;;;;8.77;3.00;;;;;;;;;;5108983;27;20047;-69
2022/10/26 14:24:22;;;;;;;11.02;2.97;;;;;;;;;;5108489;27;20043;-68
2022/10/26 14:26:48;;;;;;;10.95;3.00;;;;;;;;;;5087774;28;20528;-70
2022/10/26 14:29:25;;;;;;;8.10;2.97;;;;;;;;;;5107185;28;20051;-69
2022/10/26 14:31:51;;;;;;;9.80;3.00;;;;;;;;;;5106782;28;20044;-70
2022/10/26 14:34:24;;;;;;;5.55;2.53;;;;;;;;;;5107152;28;20126;-69
2022/10/26 14:36:50;;;;;;;6.75;3.05;;;;;;;;;;5087407;28;20039;-69
2022/10/26 14:39:35;;;;;;;8.40;2.80;;;;;;;;;;5102161;28;20452;-69